createdAt,value
2023-04-16T00:02:30.048Z,11.04
2023-04-16T00:05:55.254Z,11.06
2023-04-16T00:09:20.490Z,11.09
2023-04-16T00:12:45.733Z,11.1
2023-04-16T00:16:10.926Z,11.09
2023-04-16T00:19:36.164Z,11.07
2023-04-16T00:23:01.381Z,11.05
2023-04-16T00:26:26.623Z,11.05
2023-04-16T00:29:51.885Z,11.04
2023-04-16T00:33:17.097Z,11.05
2023-04-16T00:36:42.320Z,11.07
2023-04-16T00:40:07.543Z,11.1
2023-04-16T00:43:32.769Z,11.13
2023-04-16T00:46:58.032Z,11.14
2023-04-16T00:50:23.259Z,11.12
2023-04-16T00:53:48.460Z,11.15
2023-04-16T00:57:13.676Z,11.15
2023-04-16T01:00:38.891Z,11.15
2023-04-16T01:04:04.218Z,11.17
2023-04-16T01:07:29.375Z,11.16
2023-04-16T01:10:54.624Z,11.14
2023-04-16T01:14:19.874Z,11.1
2023-04-16T01:17:45.152Z,11.1
2023-04-16T01:21:10.380Z,11.1
2023-04-16T01:24:35.617Z,11.09
2023-04-16T01:28:00.841Z,11.06
2023-04-16T01:31:26.090Z,11.02
2023-04-16T01:34:51.299Z,11.04
2023-04-16T01:38:16.568Z,11.09
2023-04-16T01:41:41.771Z,11.1
2023-04-16T01:45:06.970Z,11.09
2023-04-16T01:48:32.195Z,11.08
2023-04-16T01:51:57.430Z,11.1
2023-04-16T01:55:22.716Z,11.09
2023-04-16T01:58:47.936Z,11.12
2023-04-16T02:02:13.208Z,11.13
2023-04-16T02:05:38.428Z,11.15
2023-04-16T02:09:03.672Z,11.11
2023-04-16T02:12:28.927Z,11.11
2023-04-16T02:15:54.171Z,11.13
2023-04-16T02:19:19.428Z,11.15
2023-04-16T02:22:44.682Z,11.14
2023-04-16T02:26:09.893Z,11.11
2023-04-16T02:29:35.171Z,11.1
2023-04-16T02:33:00.441Z,11.07
2023-04-16T02:36:25.685Z,11.08
2023-04-16T02:39:50.917Z,11.07
2023-04-16T02:43:16.135Z,11.09
2023-04-16T02:46:41.383Z,11.11
2023-04-16T02:50:06.597Z,11.15
2023-04-16T02:53:31.835Z,11.15
2023-04-16T02:56:57.219Z,11.15
2023-04-16T03:00:22.493Z,11.16
2023-04-16T03:03:47.824Z,11.15
2023-04-16T03:07:13.025Z,11.15
2023-04-16T03:10:38.224Z,11.13
2023-04-16T03:14:03.506Z,11.11
2023-04-16T03:17:29.076Z,11.06
2023-04-16T03:20:54.310Z,11.02
2023-04-16T03:24:19.528Z,10.98
2023-04-16T03:27:44.766Z,10.98
2023-04-16T03:31:10.040Z,10.97
2023-04-16T03:34:35.231Z,10.97
2023-04-16T03:38:00.505Z,10.96
2023-04-16T03:41:25.692Z,10.92
2023-04-16T03:44:50.965Z,10.93
2023-04-16T03:48:16.175Z,10.93
2023-04-16T03:51:41.407Z,10.92
2023-04-16T03:55:06.638Z,10.94
2023-04-16T03:58:31.839Z,10.96
2023-04-16T04:01:57.369Z,10.94
2023-04-16T04:05:22.559Z,10.91
2023-04-16T04:08:47.785Z,10.88
2023-04-16T04:12:13.037Z,10.84
2023-04-16T04:15:38.250Z,10.83
2023-04-16T04:19:03.465Z,10.84
2023-04-16T04:22:28.677Z,10.83
2023-04-16T04:25:53.904Z,10.84
2023-04-16T04:29:19.118Z,10.84
2023-04-16T04:32:44.350Z,10.84
2023-04-16T04:36:09.530Z,10.86
2023-04-16T04:39:34.762Z,10.87
2023-04-16T04:42:59.970Z,10.88
2023-04-16T04:46:25.310Z,10.86
2023-04-16T04:49:50.388Z,10.83
2023-04-16T04:53:15.595Z,10.79
2023-04-16T04:56:40.814Z,10.82
2023-04-16T05:00:06.016Z,10.81
2023-04-16T05:03:31.320Z,10.82
2023-04-16T05:06:56.426Z,10.82
2023-04-16T05:10:21.626Z,10.83
2023-04-16T05:13:46.848Z,10.83
2023-04-16T05:17:12.092Z,10.81
2023-04-16T05:20:37.333Z,10.79
2023-04-16T05:24:02.521Z,10.79
2023-04-16T05:27:27.738Z,10.81
2023-04-16T05:30:52.962Z,10.81
2023-04-16T05:34:18.143Z,10.78
2023-04-16T05:37:43.440Z,10.79
2023-04-16T05:41:08.574Z,10.79
2023-04-16T05:44:33.775Z,10.78
2023-04-16T05:47:59.083Z,10.75
2023-04-16T05:51:24.202Z,10.74
2023-04-16T05:54:49.442Z,10.73
2023-04-16T05:58:14.628Z,10.79
2023-04-16T06:01:39.830Z,10.83
2023-04-16T06:05:05.057Z,10.87
2023-04-16T06:08:30.255Z,10.86
2023-04-16T06:11:55.483Z,10.88
2023-04-16T06:15:20.699Z,10.94
2023-04-16T06:18:45.886Z,10.96
2023-04-16T06:22:11.120Z,11
2023-04-16T06:25:36.339Z,11.03
2023-04-16T06:29:01.589Z,11.06
2023-04-16T06:32:26.782Z,11.08
2023-04-16T06:35:51.977Z,11.06
2023-04-16T06:39:17.190Z,11.02
2023-04-16T06:42:44.196Z,11.04
2023-04-16T06:46:07.659Z,11.07
2023-04-16T06:49:32.837Z,11.09
2023-04-16T06:52:58.044Z,11.11
2023-04-16T06:56:23.263Z,11.1
2023-04-16T06:59:48.465Z,11.13
2023-04-16T07:03:13.781Z,11.17
2023-04-16T07:06:38.871Z,11.22
2023-04-16T07:10:04.065Z,11.26
2023-04-16T07:13:29.249Z,11.3
2023-04-16T07:16:54.472Z,11.34
2023-04-16T07:20:19.686Z,11.37
2023-04-16T07:23:44.877Z,11.41
2023-04-16T07:27:10.085Z,11.47
2023-04-16T07:30:35.302Z,11.5
2023-04-16T07:34:00.506Z,11.5
2023-04-16T07:37:25.743Z,11.48
2023-04-16T07:40:50.939Z,11.5
2023-04-16T07:44:16.144Z,11.51
2023-04-16T07:47:41.422Z,11.51
2023-04-16T07:51:06.558Z,11.53
2023-04-16T07:54:31.770Z,11.56
2023-04-16T07:57:56.918Z,11.56
2023-04-16T08:01:22.130Z,11.59
2023-04-16T08:04:47.438Z,11.6
2023-04-16T08:08:12.532Z,11.62
2023-04-16T08:11:37.754Z,11.64
2023-04-16T08:15:02.926Z,11.62
2023-04-16T08:18:28.126Z,11.55
2023-04-16T08:21:53.326Z,11.57
2023-04-16T08:25:18.535Z,11.6
2023-04-16T08:28:43.743Z,11.6
2023-04-16T08:32:08.948Z,11.57
2023-04-16T08:35:34.147Z,11.56
2023-04-16T08:38:59.332Z,11.59
2023-04-16T08:42:24.543Z,11.56
2023-04-16T08:45:49.785Z,11.52
2023-04-16T08:49:14.967Z,11.5
2023-04-16T08:52:40.172Z,11.49
2023-04-16T08:56:05.366Z,11.5
2023-04-16T08:59:30.605Z,11.54
2023-04-16T09:02:55.981Z,11.57
2023-04-16T09:06:21.082Z,11.6
2023-04-16T09:09:46.303Z,11.65
2023-04-16T09:13:11.528Z,11.71
2023-04-16T09:16:36.791Z,11.72
2023-04-16T09:20:02.013Z,11.78
2023-04-16T09:23:27.196Z,11.83
2023-04-16T09:26:52.421Z,11.84
2023-04-16T09:30:17.644Z,11.85
2023-04-16T09:33:42.925Z,11.85
2023-04-16T09:37:08.247Z,11.85
2023-04-16T09:40:33.493Z,11.87
2023-04-16T09:43:58.740Z,11.91
2023-04-16T09:47:24.005Z,11.88
2023-04-16T09:50:49.269Z,11.86
2023-04-16T09:54:14.630Z,11.91
2023-04-16T09:57:39.889Z,11.97
2023-04-16T10:01:05.195Z,12.04
2023-04-16T10:04:30.442Z,12.06
2023-04-16T10:07:55.764Z,12.06
2023-04-16T10:11:20.978Z,12.1
2023-04-16T10:14:47.759Z,12.16
2023-04-16T10:18:11.456Z,12.21
2023-04-16T10:21:36.650Z,12.23
2023-04-16T10:25:01.835Z,12.24
2023-04-16T10:28:27.075Z,12.23
2023-04-16T10:31:52.262Z,12.17
2023-04-16T10:35:17.493Z,12.14
2023-04-16T10:38:42.796Z,12.17
2023-04-16T10:42:08.191Z,12.17
2023-04-16T10:45:33.502Z,12.15
2023-04-16T10:48:58.796Z,12.11
2023-04-16T10:52:24.012Z,12.05
2023-04-16T10:55:49.225Z,12.01
2023-04-16T10:59:14.428Z,11.95
2023-04-16T11:02:39.828Z,11.89
2023-04-16T11:06:04.894Z,11.88
2023-04-16T11:09:30.150Z,11.89
2023-04-16T11:12:55.360Z,11.92
2023-04-16T11:16:20.663Z,11.86
2023-04-16T11:19:45.847Z,11.73
2023-04-16T11:23:11.043Z,11.66
2023-04-16T11:26:36.310Z,11.57
2023-04-16T11:30:01.537Z,11.52
2023-04-16T11:33:26.738Z,11.52
2023-04-16T11:36:51.994Z,11.51
2023-04-16T11:40:17.215Z,11.49
2023-04-16T11:43:42.421Z,11.49
2023-04-16T11:47:07.810Z,11.51
2023-04-16T11:50:32.863Z,11.51
2023-04-16T11:53:58.087Z,11.48
2023-04-16T11:57:23.293Z,11.42
2023-04-16T12:00:48.502Z,11.39
2023-04-16T12:04:14.019Z,11.38
2023-04-16T12:07:38.909Z,11.4
2023-04-16T12:11:04.197Z,11.42
2023-04-16T12:14:29.332Z,11.42
2023-04-16T12:17:54.596Z,11.34
2023-04-16T12:21:19.845Z,11.3
2023-04-16T12:24:45.081Z,11.29
2023-04-16T12:28:10.298Z,11.28
2023-04-16T12:31:35.504Z,11.22
2023-04-16T12:35:00.703Z,11.13
2023-04-16T12:38:25.905Z,11.07
2023-04-16T12:41:51.116Z,11.04
2023-04-16T12:45:16.418Z,11.03
2023-04-16T12:48:41.536Z,11.04
2023-04-16T12:52:06.743Z,11.06
2023-04-16T12:55:31.958Z,11.05
2023-04-16T12:58:57.287Z,11.04
2023-04-16T13:02:22.580Z,10.98
2023-04-16T13:05:47.704Z,10.95
2023-04-16T13:09:12.907Z,10.97
2023-04-16T13:12:38.114Z,11.02
2023-04-16T13:16:03.371Z,11.06
2023-04-16T13:19:28.725Z,11.06
2023-04-16T13:22:53.935Z,11.09
2023-04-16T13:26:19.139Z,11.11
2023-04-16T13:29:44.426Z,11.11
2023-04-16T13:33:09.625Z,11.11
2023-04-16T13:36:35.090Z,11.1
2023-04-16T13:40:00.276Z,11.13
2023-04-16T13:43:25.490Z,11.09
2023-04-16T13:46:50.734Z,11.06
2023-04-16T13:50:15.924Z,11.1
2023-04-16T13:53:41.196Z,11.12
2023-04-16T13:57:06.480Z,11.15
2023-04-16T14:00:31.699Z,11.22
2023-04-16T14:03:58.023Z,11.26
2023-04-16T14:07:23.294Z,11.35
2023-04-16T14:10:48.588Z,11.43
2023-04-16T14:14:13.835Z,11.5
2023-04-16T14:17:39.152Z,11.54
2023-04-16T14:21:04.289Z,11.56
2023-04-16T14:24:29.494Z,11.58
2023-04-16T14:27:54.757Z,11.6
2023-04-16T14:31:20.049Z,11.63
2023-04-16T14:34:45.151Z,11.62
2023-04-16T14:38:10.347Z,11.59
2023-04-16T14:41:35.576Z,11.6
2023-04-16T14:45:00.793Z,11.57
2023-04-16T14:48:26.094Z,11.54
2023-04-16T14:51:51.270Z,11.55
2023-04-16T14:55:16.483Z,11.55
2023-04-16T14:58:41.736Z,11.52
2023-04-16T15:02:07.012Z,11.47
2023-04-16T15:05:32.151Z,11.39
2023-04-16T15:39:21.259Z,9.23
2023-04-16T15:42:46.423Z,10.21
2023-04-16T15:46:11.634Z,10.45
2023-04-16T15:49:36.858Z,10.71
2023-04-16T15:53:02.042Z,10.9
2023-04-16T15:56:27.298Z,10.97
2023-04-16T16:00:05.771Z,11.04
2023-04-16T16:03:19.795Z,11.13
2023-04-16T16:06:44.916Z,11.15
2023-04-16T16:10:10.138Z,11.13
2023-04-16T16:13:35.415Z,11.09
2023-04-16T16:17:00.646Z,11.09
2023-04-16T16:20:25.873Z,11.08
2023-04-16T16:23:51.065Z,11.09
2023-04-16T16:27:16.703Z,11.09
2023-04-16T16:31:04.008Z,11.19
2023-04-16T16:34:29.171Z,11.27
2023-04-16T16:37:54.371Z,11.3
2023-04-16T16:41:19.578Z,11.32
2023-04-16T16:44:44.821Z,11.27
2023-04-16T16:48:10.082Z,11.25
2023-04-16T16:51:35.262Z,11.19
2023-04-16T16:55:00.494Z,11.12
2023-04-16T16:58:25.706Z,11.04
2023-04-16T17:01:50.921Z,10.93
2023-04-16T17:05:16.149Z,10.87
2023-04-16T17:08:41.347Z,10.83
2023-04-16T17:12:06.569Z,10.84
2023-04-16T17:15:31.788Z,10.84
2023-04-16T17:18:57.046Z,10.88
2023-04-16T17:22:22.287Z,10.93
2023-04-16T17:25:47.454Z,10.93
2023-04-16T17:29:12.664Z,10.91
2023-04-16T17:32:37.943Z,10.86
2023-04-16T17:36:03.238Z,10.85
2023-04-16T17:39:28.646Z,10.82
2023-04-16T17:42:54.018Z,10.8
2023-04-16T17:46:19.538Z,10.83
2023-04-16T17:49:44.906Z,10.83
2023-04-16T17:53:10.293Z,10.77
2023-04-16T17:56:35.738Z,10.76
2023-04-16T18:00:01.066Z,10.76
2023-04-16T18:03:26.523Z,10.77
2023-04-16T18:06:51.785Z,10.76
2023-04-16T18:10:17.156Z,10.75
2023-04-16T18:13:42.573Z,10.76
2023-04-16T18:17:07.940Z,10.72
2023-04-16T18:20:33.311Z,10.69
2023-04-16T18:23:58.639Z,10.68
2023-04-16T18:27:24.069Z,10.7
2023-04-16T18:30:49.627Z,10.71
2023-04-16T18:34:14.783Z,10.71
2023-04-16T18:37:40.074Z,10.71
2023-04-16T18:41:05.411Z,10.66
2023-04-16T18:44:30.730Z,10.61
2023-04-16T18:47:56.103Z,10.62
2023-04-16T18:51:21.394Z,10.63
2023-04-16T18:54:46.780Z,10.65
2023-04-16T18:58:12.143Z,10.63
2023-04-16T19:01:37.448Z,10.63
2023-04-16T19:05:02.846Z,10.7
2023-04-16T19:08:28.207Z,10.78
2023-04-16T19:11:53.571Z,10.78
2023-04-16T19:15:18.921Z,10.76
2023-04-16T19:18:44.205Z,10.75
2023-04-16T19:22:09.533Z,10.73
2023-04-16T19:25:34.742Z,10.71
2023-04-16T19:28:59.980Z,10.71
2023-04-16T19:32:25.225Z,10.78
2023-04-16T19:35:50.398Z,10.81
2023-04-16T19:39:15.631Z,10.77
2023-04-16T19:42:40.822Z,10.74
2023-04-16T19:46:06.146Z,10.71
2023-04-16T19:49:32.419Z,10.71
2023-04-16T19:52:56.446Z,10.71
2023-04-16T19:56:21.771Z,10.71
2023-04-16T19:59:46.946Z,10.76
2023-04-16T20:03:12.216Z,10.77
2023-04-16T20:06:37.395Z,10.79
2023-04-16T20:10:02.637Z,10.73
2023-04-16T20:13:27.864Z,10.71
2023-04-16T20:16:53.074Z,10.74
2023-04-16T20:20:18.593Z,10.75
2023-04-16T20:23:43.811Z,10.8
2023-04-16T20:27:09.018Z,10.82
2023-04-16T20:30:34.286Z,10.77
2023-04-16T20:33:59.442Z,10.72
2023-04-16T20:37:24.650Z,10.76
2023-04-16T20:40:49.898Z,10.81
2023-04-16T20:44:15.104Z,10.84
2023-04-16T20:47:40.375Z,10.86
2023-04-16T20:51:05.560Z,10.86
2023-04-16T20:54:30.807Z,10.83
2023-04-16T20:57:56.032Z,10.81
2023-04-16T21:01:21.270Z,10.83
2023-04-16T21:04:46.530Z,10.85
2023-04-16T21:08:11.693Z,10.82
2023-04-16T21:11:36.900Z,10.82
2023-04-16T21:15:02.105Z,10.82
2023-04-16T21:18:27.319Z,10.84
2023-04-16T21:21:52.567Z,10.85
2023-04-16T21:25:17.743Z,10.85
2023-04-16T21:28:42.953Z,10.83
2023-04-16T21:32:08.161Z,10.82
2023-04-16T21:35:33.382Z,10.8
2023-04-16T21:38:58.610Z,10.81
2023-04-16T21:42:23.776Z,10.82
2023-04-16T21:45:48.975Z,10.82
2023-04-16T21:49:14.189Z,10.78
2023-04-16T21:52:39.404Z,10.77
2023-04-16T21:56:04.630Z,10.79
2023-04-16T21:59:29.824Z,10.8
2023-04-16T22:02:55.085Z,10.82
2023-04-16T22:06:20.253Z,10.81
2023-04-16T22:09:45.474Z,10.75
2023-04-16T22:13:10.689Z,10.76
2023-04-16T22:16:35.892Z,10.73
2023-04-16T22:20:01.053Z,10.66
2023-04-16T22:23:26.296Z,10.6
2023-04-16T22:26:51.499Z,10.59
2023-04-16T22:30:16.700Z,10.61
2023-04-16T22:33:41.888Z,10.63
2023-04-16T22:37:07.104Z,10.62
2023-04-16T22:40:32.321Z,10.6
2023-04-16T22:43:57.507Z,10.54
2023-04-16T22:47:22.818Z,10.52
2023-04-16T22:50:47.974Z,10.55
2023-04-16T22:54:13.876Z,10.53
2023-04-16T22:57:38.396Z,10.56
2023-04-16T23:01:03.611Z,10.57
2023-04-16T23:04:28.849Z,10.54
2023-04-16T23:07:54.014Z,10.6
2023-04-16T23:11:19.186Z,10.65
2023-04-16T23:14:44.393Z,10.7
2023-04-16T23:18:09.640Z,10.64
2023-04-16T23:21:34.833Z,10.62
2023-04-16T23:25:00.000Z,10.62
2023-04-16T23:28:25.219Z,10.66
2023-04-16T23:31:50.499Z,10.71
2023-04-16T23:35:15.633Z,10.72
2023-04-16T23:38:40.852Z,10.69
2023-04-16T23:42:06.018Z,10.65
2023-04-16T23:45:31.269Z,10.57
2023-04-16T23:48:56.455Z,10.48
2023-04-16T23:52:21.693Z,10.51
2023-04-16T23:55:46.887Z,10.56
2023-04-16T23:59:12.581Z,10.56
